sensor_id;sensor_type;location;lat;lon;timestamp;P1;durP1;ratioP1;P2;durP2;ratioP2
21101;SDS011;10709;49.006;12.100;2023-11-18T00:00:45;14.03;;;8.20;;
21101;SDS011;10709;49.006;12.100;2023-11-18T00:03:12;12.27;;;6.77;;
21101;SDS011;10709;49.006;12.100;2023-11-18T00:05:38;11.47;;;7.27;;
21101;SDS011;10709;49.006;12.100;2023-11-18T00:08:05;10.53;;;7.20;;
21101;SDS011;10709;49.006;12.100;2023-11-18T00:10:32;9.87;;;6.60;;
21101;SDS011;10709;49.006;12.100;2023-11-18T00:12:58;9.67;;;6.60;;
21101;SDS011;10709;49.006;12.100;2023-11-18T00:15:25;10.07;;;6.77;;
21101;SDS011;10709;49.006;12.100;2023-11-18T00:17:52;9.17;;;6.33;;
21101;SDS011;10709;49.006;12.100;2023-11-18T00:20:19;9.70;;;7.00;;
21101;SDS011;10709;49.006;12.100;2023-11-18T00:22:46;10.60;;;6.57;;
21101;SDS011;10709;49.006;12.100;2023-11-18T00:25:13;8.77;;;6.80;;
21101;SDS011;10709;49.006;12.100;2023-11-18T00:27:40;9.30;;;7.00;;
21101;SDS011;10709;49.006;12.100;2023-11-18T00:30:07;10.13;;;6.83;;
21101;SDS011;10709;49.006;12.100;2023-11-18T00:32:39;9.67;;;6.93;;
21101;SDS011;10709;49.006;12.100;2023-11-18T00:35:06;10.67;;;7.40;;
21101;SDS011;10709;49.006;12.100;2023-11-18T00:37:34;8.40;;;6.70;;
21101;SDS011;10709;49.006;12.100;2023-11-18T00:40:02;9.80;;;6.77;;
21101;SDS011;10709;49.006;12.100;2023-11-18T00:42:29;9.90;;;7.13;;
21101;SDS011;10709;49.006;12.100;2023-11-18T00:44:56;8.53;;;6.63;;
21101;SDS011;10709;49.006;12.100;2023-11-18T00:47:23;9.87;;;7.07;;
21101;SDS011;10709;49.006;12.100;2023-11-18T00:49:50;10.10;;;7.50;;
21101;SDS011;10709;49.006;12.100;2023-11-18T00:52:19;9.40;;;7.17;;
21101;SDS011;10709;49.006;12.100;2023-11-18T00:54:45;9.97;;;7.80;;
21101;SDS011;10709;49.006;12.100;2023-11-18T00:57:12;9.47;;;7.20;;
21101;SDS011;10709;49.006;12.100;2023-11-18T00:59:41;9.30;;;7.50;;
21101;SDS011;10709;49.006;12.100;2023-11-18T01:02:08;11.00;;;8.17;;
21101;SDS011;10709;49.006;12.100;2023-11-18T01:04:37;11.57;;;9.23;;
21101;SDS011;10709;49.006;12.100;2023-11-18T01:07:03;11.00;;;8.13;;
21101;SDS011;10709;49.006;12.100;2023-11-18T01:09:30;12.13;;;8.63;;
21101;SDS011;10709;49.006;12.100;2023-11-18T01:12:03;10.37;;;8.33;;
21101;SDS011;10709;49.006;12.100;2023-11-18T01:14:34;10.83;;;8.17;;
21101;SDS011;10709;49.006;12.100;2023-11-18T01:17:05;10.53;;;8.47;;
21101;SDS011;10709;49.006;12.100;2023-11-18T01:19:32;12.40;;;8.60;;
21101;SDS011;10709;49.006;12.100;2023-11-18T01:21:59;11.70;;;8.73;;
21101;SDS011;10709;49.006;12.100;2023-11-18T01:24:26;11.17;;;8.33;;
21101;SDS011;10709;49.006;12.100;2023-11-18T01:26:53;10.27;;;8.07;;
21101;SDS011;10709;49.006;12.100;2023-11-18T01:29:20;13.53;;;8.63;;
21101;SDS011;10709;49.006;12.100;2023-11-18T01:31:48;11.63;;;8.90;;
21101;SDS011;10709;49.006;12.100;2023-11-18T01:34:18;11.60;;;8.70;;
21101;SDS011;10709;49.006;12.100;2023-11-18T01:36:48;12.93;;;8.90;;
21101;SDS011;10709;49.006;12.100;2023-11-18T01:39:16;12.07;;;8.20;;
21101;SDS011;10709;49.006;12.100;2023-11-18T01:41:44;12.27;;;8.70;;
21101;SDS011;10709;49.006;12.100;2023-11-18T01:44:11;10.40;;;8.00;;
21101;SDS011;10709;49.006;12.100;2023-11-18T01:46:41;10.10;;;8.37;;
21101;SDS011;10709;49.006;12.100;2023-11-18T01:49:12;10.90;;;8.00;;
21101;SDS011;10709;49.006;12.100;2023-11-18T01:51:45;11.40;;;8.50;;
21101;SDS011;10709;49.006;12.100;2023-11-18T01:54:13;10.37;;;8.27;;
21101;SDS011;10709;49.006;12.100;2023-11-18T01:56:46;10.47;;;7.90;;
21101;SDS011;10709;49.006;12.100;2023-11-18T01:59:15;9.60;;;7.40;;
21101;SDS011;10709;49.006;12.100;2023-11-18T02:01:49;9.63;;;7.30;;
21101;SDS011;10709;49.006;12.100;2023-11-18T02:04:18;9.07;;;7.07;;
21101;SDS011;10709;49.006;12.100;2023-11-18T02:06:50;9.77;;;6.90;;
21101;SDS011;10709;49.006;12.100;2023-11-18T02:09:20;10.00;;;7.60;;
21101;SDS011;10709;49.006;12.100;2023-11-18T02:11:56;12.30;;;7.70;;
21101;SDS011;10709;49.006;12.100;2023-11-18T02:14:33;8.27;;;6.70;;
21101;SDS011;10709;49.006;12.100;2023-11-18T02:17:03;8.43;;;6.80;;
21101;SDS011;10709;49.006;12.100;2023-11-18T02:19:31;9.53;;;6.87;;
21101;SDS011;10709;49.006;12.100;2023-11-18T02:22:01;8.87;;;6.70;;
21101;SDS011;10709;49.006;12.100;2023-11-18T02:24:31;8.20;;;6.87;;
21101;SDS011;10709;49.006;12.100;2023-11-18T02:27:03;7.90;;;6.50;;
21101;SDS011;10709;49.006;12.100;2023-11-18T02:29:39;8.90;;;6.40;;
21101;SDS011;10709;49.006;12.100;2023-11-18T02:32:11;9.10;;;6.77;;
21101;SDS011;10709;49.006;12.100;2023-11-18T02:34:47;9.17;;;6.50;;
21101;SDS011;10709;49.006;12.100;2023-11-18T02:37:20;9.17;;;7.17;;
21101;SDS011;10709;49.006;12.100;2023-11-18T02:39:48;8.53;;;6.80;;
21101;SDS011;10709;49.006;12.100;2023-11-18T02:42:20;9.27;;;6.80;;
21101;SDS011;10709;49.006;12.100;2023-11-18T02:44:49;8.30;;;6.60;;
21101;SDS011;10709;49.006;12.100;2023-11-18T02:47:26;10.07;;;7.17;;
21101;SDS011;10709;49.006;12.100;2023-11-18T02:49:53;8.87;;;7.07;;
21101;SDS011;10709;49.006;12.100;2023-11-18T02:52:22;9.50;;;6.83;;
21101;SDS011;10709;49.006;12.100;2023-11-18T02:54:49;9.43;;;7.20;;
21101;SDS011;10709;49.006;12.100;2023-11-18T02:57:15;8.43;;;7.10;;
21101;SDS011;10709;49.006;12.100;2023-11-18T02:59:42;10.23;;;7.30;;
21101;SDS011;10709;49.006;12.100;2023-11-18T03:02:08;9.13;;;6.47;;
21101;SDS011;10709;49.006;12.100;2023-11-18T03:04:35;8.47;;;6.27;;
21101;SDS011;10709;49.006;12.100;2023-11-18T03:07:02;10.30;;;6.87;;
21101;SDS011;10709;49.006;12.100;2023-11-18T03:09:32;12.00;;;7.43;;
21101;SDS011;10709;49.006;12.100;2023-11-18T03:12:01;11.33;;;8.07;;
21101;SDS011;10709;49.006;12.100;2023-11-18T03:14:30;8.03;;;6.30;;
21101;SDS011;10709;49.006;12.100;2023-11-18T03:16:57;9.30;;;6.77;;
21101;SDS011;10709;49.006;12.100;2023-11-18T03:19:24;11.67;;;6.93;;
21101;SDS011;10709;49.006;12.100;2023-11-18T03:21:51;8.73;;;6.70;;
21101;SDS011;10709;49.006;12.100;2023-11-18T03:24:19;12.43;;;6.70;;
21101;SDS011;10709;49.006;12.100;2023-11-18T03:26:46;8.47;;;6.37;;
21101;SDS011;10709;49.006;12.100;2023-11-18T03:29:12;7.53;;;5.97;;
21101;SDS011;10709;49.006;12.100;2023-11-18T03:31:39;9.27;;;6.17;;
21101;SDS011;10709;49.006;12.100;2023-11-18T03:34:10;6.80;;;5.20;;
21101;SDS011;10709;49.006;12.100;2023-11-18T03:36:39;7.37;;;5.43;;
21101;SDS011;10709;49.006;12.100;2023-11-18T03:39:05;7.20;;;5.60;;
21101;SDS011;10709;49.006;12.100;2023-11-18T03:41:32;9.87;;;6.30;;
21101;SDS011;10709;49.006;12.100;2023-11-18T03:43:59;6.80;;;5.37;;
21101;SDS011;10709;49.006;12.100;2023-11-18T03:46:25;7.53;;;5.50;;
21101;SDS011;10709;49.006;12.100;2023-11-18T03:48:52;7.10;;;5.20;;
21101;SDS011;10709;49.006;12.100;2023-11-18T03:51:18;8.60;;;6.03;;
21101;SDS011;10709;49.006;12.100;2023-11-18T03:53:44;7.97;;;5.83;;
21101;SDS011;10709;49.006;12.100;2023-11-18T03:56:16;8.73;;;6.13;;
21101;SDS011;10709;49.006;12.100;2023-11-18T03:58:44;7.93;;;6.30;;
21101;SDS011;10709;49.006;12.100;2023-11-18T04:01:20;6.90;;;5.30;;
21101;SDS011;10709;49.006;12.100;2023-11-18T04:03:48;9.53;;;6.47;;
21101;SDS011;10709;49.006;12.100;2023-11-18T04:06:15;6.23;;;5.60;;
21101;SDS011;10709;49.006;12.100;2023-11-18T04:08:46;7.70;;;5.77;;
21101;SDS011;10709;49.006;12.100;2023-11-18T04:11:13;6.60;;;5.67;;
21101;SDS011;10709;49.006;12.100;2023-11-18T04:13:42;8.70;;;5.63;;
21101;SDS011;10709;49.006;12.100;2023-11-18T04:16:13;7.93;;;5.50;;
21101;SDS011;10709;49.006;12.100;2023-11-18T04:18:43;9.23;;;5.33;;
21101;SDS011;10709;49.006;12.100;2023-11-18T04:21:11;7.40;;;5.70;;
21101;SDS011;10709;49.006;12.100;2023-11-18T04:23:40;6.77;;;5.23;;
21101;SDS011;10709;49.006;12.100;2023-11-18T04:26:08;7.57;;;5.80;;
21101;SDS011;10709;49.006;12.100;2023-11-18T04:28:35;7.30;;;5.57;;
21101;SDS011;10709;49.006;12.100;2023-11-18T04:31:02;7.70;;;5.10;;
21101;SDS011;10709;49.006;12.100;2023-11-18T04:33:29;7.33;;;5.80;;
21101;SDS011;10709;49.006;12.100;2023-11-18T04:35:56;7.50;;;5.60;;
21101;SDS011;10709;49.006;12.100;2023-11-18T04:38:23;7.53;;;5.37;;
21101;SDS011;10709;49.006;12.100;2023-11-18T04:40:54;7.57;;;5.83;;
21101;SDS011;10709;49.006;12.100;2023-11-18T04:43:21;8.50;;;5.50;;
21101;SDS011;10709;49.006;12.100;2023-11-18T04:46:05;7.10;;;5.37;;
21101;SDS011;10709;49.006;12.100;2023-11-18T04:48:33;8.90;;;5.20;;
21101;SDS011;10709;49.006;12.100;2023-11-18T04:51:08;7.53;;;5.50;;
21101;SDS011;10709;49.006;12.100;2023-11-18T04:53:34;6.73;;;5.10;;
21101;SDS011;10709;49.006;12.100;2023-11-18T04:56:01;7.30;;;5.83;;
21101;SDS011;10709;49.006;12.100;2023-11-18T04:58:28;6.90;;;4.90;;
21101;SDS011;10709;49.006;12.100;2023-11-18T05:00:55;7.77;;;6.07;;
21101;SDS011;10709;49.006;12.100;2023-11-18T05:03:21;6.03;;;5.13;;
21101;SDS011;10709;49.006;12.100;2023-11-18T05:05:50;6.33;;;5.00;;
21101;SDS011;10709;49.006;12.100;2023-11-18T05:08:19;7.37;;;5.33;;
21101;SDS011;10709;49.006;12.100;2023-11-18T05:10:48;7.83;;;5.67;;
21101;SDS011;10709;49.006;12.100;2023-11-18T05:13:18;8.33;;;5.30;;
21101;SDS011;10709;49.006;12.100;2023-11-18T05:15:45;8.37;;;5.00;;
21101;SDS011;10709;49.006;12.100;2023-11-18T05:18:13;10.83;;;5.50;;
21101;SDS011;10709;49.006;12.100;2023-11-18T05:20:41;6.93;;;4.97;;
21101;SDS011;10709;49.006;12.100;2023-11-18T05:23:09;6.43;;;5.10;;
21101;SDS011;10709;49.006;12.100;2023-11-18T05:25:39;6.30;;;5.30;;
21101;SDS011;10709;49.006;12.100;2023-11-18T05:28:06;9.00;;;5.83;;
21101;SDS011;10709;49.006;12.100;2023-11-18T05:30:36;6.20;;;5.13;;
21101;SDS011;10709;49.006;12.100;2023-11-18T05:33:03;6.77;;;5.23;;
21101;SDS011;10709;49.006;12.100;2023-11-18T05:35:32;6.90;;;5.37;;
21101;SDS011;10709;49.006;12.100;2023-11-18T05:37:59;8.47;;;5.77;;
21101;SDS011;10709;49.006;12.100;2023-11-18T05:40:28;7.33;;;5.63;;
21101;SDS011;10709;49.006;12.100;2023-11-18T05:42:56;6.17;;;5.00;;
21101;SDS011;10709;49.006;12.100;2023-11-18T05:45:23;8.70;;;5.50;;
21101;SDS011;10709;49.006;12.100;2023-11-18T05:48:03;8.20;;;5.63;;
21101;SDS011;10709;49.006;12.100;2023-11-18T05:50:32;8.23;;;5.50;;
21101;SDS011;10709;49.006;12.100;2023-11-18T05:52:58;11.47;;;6.80;;
21101;SDS011;10709;49.006;12.100;2023-11-18T05:55:26;7.00;;;5.37;;
21101;SDS011;10709;49.006;12.100;2023-11-18T05:57:53;8.53;;;5.77;;
21101;SDS011;10709;49.006;12.100;2023-11-18T06:00:19;8.43;;;6.10;;
21101;SDS011;10709;49.006;12.100;2023-11-18T06:02:56;8.00;;;5.60;;
21101;SDS011;10709;49.006;12.100;2023-11-18T06:05:23;9.13;;;5.57;;
21101;SDS011;10709;49.006;12.100;2023-11-18T06:07:52;7.40;;;6.17;;
21101;SDS011;10709;49.006;12.100;2023-11-18T06:10:20;8.00;;;5.10;;
21101;SDS011;10709;49.006;12.100;2023-11-18T06:12:46;7.30;;;5.40;;
21101;SDS011;10709;49.006;12.100;2023-11-18T06:15:13;9.53;;;5.27;;
21101;SDS011;10709;49.006;12.100;2023-11-18T06:17:43;8.77;;;5.53;;
21101;SDS011;10709;49.006;12.100;2023-11-18T06:20:10;7.47;;;5.40;;
21101;SDS011;10709;49.006;12.100;2023-11-18T06:22:38;8.47;;;5.40;;
21101;SDS011;10709;49.006;12.100;2023-11-18T06:25:04;7.13;;;5.30;;
21101;SDS011;10709;49.006;12.100;2023-11-18T06:27:34;8.07;;;5.73;;
21101;SDS011;10709;49.006;12.100;2023-11-18T06:30:00;10.97;;;6.67;;
21101;SDS011;10709;49.006;12.100;2023-11-18T06:32:28;10.17;;;5.87;;
21101;SDS011;10709;49.006;12.100;2023-11-18T06:34:57;8.33;;;5.37;;
21101;SDS011;10709;49.006;12.100;2023-11-18T06:37:24;9.00;;;5.40;;
21101;SDS011;10709;49.006;12.100;2023-11-18T06:39:51;7.07;;;5.23;;
21101;SDS011;10709;49.006;12.100;2023-11-18T06:42:18;7.87;;;5.40;;
21101;SDS011;10709;49.006;12.100;2023-11-18T06:44:45;6.73;;;5.10;;
21101;SDS011;10709;49.006;12.100;2023-11-18T06:47:11;9.10;;;6.27;;
21101;SDS011;10709;49.006;12.100;2023-11-18T06:49:39;7.37;;;5.87;;
21101;SDS011;10709;49.006;12.100;2023-11-18T06:52:07;8.00;;;5.90;;
21101;SDS011;10709;49.006;12.100;2023-11-18T06:54:36;7.60;;;5.67;;
21101;SDS011;10709;49.006;12.100;2023-11-18T06:57:04;6.70;;;5.67;;
21101;SDS011;10709;49.006;12.100;2023-11-18T06:59:31;7.30;;;5.13;;
21101;SDS011;10709;49.006;12.100;2023-11-18T07:01:57;10.77;;;5.30;;
21101;SDS011;10709;49.006;12.100;2023-11-18T07:04:24;7.60;;;6.20;;
21101;SDS011;10709;49.006;12.100;2023-11-18T07:06:51;7.97;;;5.47;;
21101;SDS011;10709;49.006;12.100;2023-11-18T07:09:20;7.47;;;5.50;;
21101;SDS011;10709;49.006;12.100;2023-11-18T07:11:47;8.57;;;5.57;;
21101;SDS011;10709;49.006;12.100;2023-11-18T07:14:14;8.13;;;5.70;;
21101;SDS011;10709;49.006;12.100;2023-11-18T07:16:42;8.20;;;5.83;;
21101;SDS011;10709;49.006;12.100;2023-11-18T07:19:10;8.40;;;5.53;;
21101;SDS011;10709;49.006;12.100;2023-11-18T07:21:45;7.40;;;5.77;;
21101;SDS011;10709;49.006;12.100;2023-11-18T07:24:16;7.07;;;5.63;;
21101;SDS011;10709;49.006;12.100;2023-11-18T07:26:44;7.23;;;5.17;;
21101;SDS011;10709;49.006;12.100;2023-11-18T07:29:12;7.20;;;5.40;;
21101;SDS011;10709;49.006;12.100;2023-11-18T07:31:38;7.77;;;5.43;;
21101;SDS011;10709;49.006;12.100;2023-11-18T07:34:06;7.67;;;5.70;;
21101;SDS011;10709;49.006;12.100;2023-11-18T07:36:32;7.43;;;5.53;;
21101;SDS011;10709;49.006;12.100;2023-11-18T07:38:59;8.53;;;6.00;;
21101;SDS011;10709;49.006;12.100;2023-11-18T07:41:27;9.47;;;7.07;;
21101;SDS011;10709;49.006;12.100;2023-11-18T07:43:58;9.17;;;5.80;;
21101;SDS011;10709;49.006;12.100;2023-11-18T07:46:24;8.27;;;6.20;;
21101;SDS011;10709;49.006;12.100;2023-11-18T07:48:52;7.97;;;5.83;;
21101;SDS011;10709;49.006;12.100;2023-11-18T07:51:20;7.57;;;5.97;;
21101;SDS011;10709;49.006;12.100;2023-11-18T07:53:49;9.27;;;7.30;;
21101;SDS011;10709;49.006;12.100;2023-11-18T07:56:19;9.70;;;7.40;;
21101;SDS011;10709;49.006;12.100;2023-11-18T07:58:49;8.70;;;6.23;;
21101;SDS011;10709;49.006;12.100;2023-11-18T08:01:19;7.07;;;5.93;;
21101;SDS011;10709;49.006;12.100;2023-11-18T08:03:51;9.07;;;6.67;;
21101;SDS011;10709;49.006;12.100;2023-11-18T08:06:20;10.07;;;6.97;;
21101;SDS011;10709;49.006;12.100;2023-11-18T08:08:47;10.07;;;6.60;;
21101;SDS011;10709;49.006;12.100;2023-11-18T08:11:14;10.27;;;6.60;;
21101;SDS011;10709;49.006;12.100;2023-11-18T08:13:41;7.70;;;6.20;;
21101;SDS011;10709;49.006;12.100;2023-11-18T08:16:09;8.77;;;5.90;;
21101;SDS011;10709;49.006;12.100;2023-11-18T08:18:37;12.30;;;5.97;;
21101;SDS011;10709;49.006;12.100;2023-11-18T08:21:06;8.33;;;6.27;;
21101;SDS011;10709;49.006;12.100;2023-11-18T08:23:34;8.73;;;6.20;;
21101;SDS011;10709;49.006;12.100;2023-11-18T08:26:02;12.57;;;6.67;;
21101;SDS011;10709;49.006;12.100;2023-11-18T08:28:29;8.87;;;6.10;;
21101;SDS011;10709;49.006;12.100;2023-11-18T08:30:56;9.77;;;6.77;;
21101;SDS011;10709;49.006;12.100;2023-11-18T08:33:23;10.30;;;7.17;;
21101;SDS011;10709;49.006;12.100;2023-11-18T08:35:50;10.67;;;7.17;;
21101;SDS011;10709;49.006;12.100;2023-11-18T08:38:18;10.10;;;7.33;;
21101;SDS011;10709;49.006;12.100;2023-11-18T08:40:46;13.10;;;7.13;;
21101;SDS011;10709;49.006;12.100;2023-11-18T08:43:15;11.47;;;7.37;;
21101;SDS011;10709;49.006;12.100;2023-11-18T08:45:43;13.63;;;7.40;;
21101;SDS011;10709;49.006;12.100;2023-11-18T08:48:09;9.70;;;7.20;;
21101;SDS011;10709;49.006;12.100;2023-11-18T08:50:37;10.77;;;7.47;;
21101;SDS011;10709;49.006;12.100;2023-11-18T08:53:06;10.83;;;7.57;;
21101;SDS011;10709;49.006;12.100;2023-11-18T08:55:36;11.53;;;7.53;;
21101;SDS011;10709;49.006;12.100;2023-11-18T08:58:09;12.07;;;7.53;;
21101;SDS011;10709;49.006;12.100;2023-11-18T09:00:47;14.20;;;7.73;;
21101;SDS011;10709;49.006;12.100;2023-11-18T09:03:20;15.13;;;7.80;;
21101;SDS011;10709;49.006;12.100;2023-11-18T09:05:53;9.93;;;7.07;;
21101;SDS011;10709;49.006;12.100;2023-11-18T09:08:33;13.67;;;7.80;;
21101;SDS011;10709;49.006;12.100;2023-11-18T09:11:03;10.70;;;7.73;;
21101;SDS011;10709;49.006;12.100;2023-11-18T09:13:34;11.17;;;8.10;;
21101;SDS011;10709;49.006;12.100;2023-11-18T09:16:02;11.13;;;7.70;;
21101;SDS011;10709;49.006;12.100;2023-11-18T09:18:37;8.83;;;7.40;;
21101;SDS011;10709;49.006;12.100;2023-11-18T09:21:09;10.97;;;7.63;;
21101;SDS011;10709;49.006;12.100;2023-11-18T09:23:57;10.33;;;7.63;;
21101;SDS011;10709;49.006;12.100;2023-11-18T09:26:23;12.60;;;8.40;;
21101;SDS011;10709;49.006;12.100;2023-11-18T09:28:52;9.53;;;7.47;;
21101;SDS011;10709;49.006;12.100;2023-11-18T09:31:20;10.80;;;8.03;;
21101;SDS011;10709;49.006;12.100;2023-11-18T09:33:47;11.27;;;7.40;;
21101;SDS011;10709;49.006;12.100;2023-11-18T09:36:24;9.50;;;7.40;;
21101;SDS011;10709;49.006;12.100;2023-11-18T09:38:50;9.37;;;7.27;;
21101;SDS011;10709;49.006;12.100;2023-11-18T09:41:17;11.60;;;7.53;;
21101;SDS011;10709;49.006;12.100;2023-11-18T09:43:45;10.87;;;7.80;;
21101;SDS011;10709;49.006;12.100;2023-11-18T09:46:15;11.80;;;7.80;;
21101;SDS011;10709;49.006;12.100;2023-11-18T09:48:49;13.07;;;8.10;;
21101;SDS011;10709;49.006;12.100;2023-11-18T09:51:28;9.93;;;7.47;;
21101;SDS011;10709;49.006;12.100;2023-11-18T09:54:04;9.70;;;7.67;;
21101;SDS011;10709;49.006;12.100;2023-11-18T09:56:47;11.60;;;8.27;;
21101;SDS011;10709;49.006;12.100;2023-11-18T09:59:25;13.23;;;8.23;;
21101;SDS011;10709;49.006;12.100;2023-11-18T10:02:02;13.13;;;8.27;;
21101;SDS011;10709;49.006;12.100;2023-11-18T10:04:31;13.73;;;9.30;;
21101;SDS011;10709;49.006;12.100;2023-11-18T10:06:58;10.80;;;7.73;;
21101;SDS011;10709;49.006;12.100;2023-11-18T10:09:28;10.27;;;8.23;;
21101;SDS011;10709;49.006;12.100;2023-11-18T10:11:56;10.27;;;7.70;;
21101;SDS011;10709;49.006;12.100;2023-11-18T10:14:27;12.07;;;7.83;;
21101;SDS011;10709;49.006;12.100;2023-11-18T10:16:53;10.70;;;7.70;;
21101;SDS011;10709;49.006;12.100;2023-11-18T10:19:20;11.93;;;8.57;;
21101;SDS011;10709;49.006;12.100;2023-11-18T10:21:47;12.10;;;8.27;;
21101;SDS011;10709;49.006;12.100;2023-11-18T10:24:16;9.97;;;8.20;;
21101;SDS011;10709;49.006;12.100;2023-11-18T10:26:54;10.97;;;8.33;;
21101;SDS011;10709;49.006;12.100;2023-11-18T10:29:25;9.80;;;7.77;;
21101;SDS011;10709;49.006;12.100;2023-11-18T10:32:04;11.93;;;8.10;;
21101;SDS011;10709;49.006;12.100;2023-11-18T10:34:36;9.80;;;7.50;;
21101;SDS011;10709;49.006;12.100;2023-11-18T10:37:03;11.50;;;8.63;;
21101;SDS011;10709;49.006;12.100;2023-11-18T10:39:31;12.93;;;8.10;;
21101;SDS011;10709;49.006;12.100;2023-11-18T10:42:01;9.63;;;7.67;;
21101;SDS011;10709;49.006;12.100;2023-11-18T10:44:29;10.70;;;7.43;;
21101;SDS011;10709;49.006;12.100;2023-11-18T10:46:57;9.97;;;7.50;;
21101;SDS011;10709;49.006;12.100;2023-11-18T10:49:28;12.10;;;8.50;;
21101;SDS011;10709;49.006;12.100;2023-11-18T10:51:55;11.23;;;8.90;;
21101;SDS011;10709;49.006;12.100;2023-11-18T10:54:26;11.90;;;8.43;;
21101;SDS011;10709;49.006;12.100;2023-11-18T10:56:54;10.90;;;8.13;;
21101;SDS011;10709;49.006;12.100;2023-11-18T10:59:23;9.23;;;7.30;;
21101;SDS011;10709;49.006;12.100;2023-11-18T11:01:50;9.03;;;7.13;;
21101;SDS011;10709;49.006;12.100;2023-11-18T11:04:17;11.10;;;8.10;;
21101;SDS011;10709;49.006;12.100;2023-11-18T11:06:48;11.53;;;8.03;;
21101;SDS011;10709;49.006;12.100;2023-11-18T11:09:20;12.87;;;8.70;;
21101;SDS011;10709;49.006;12.100;2023-11-18T11:11:54;11.07;;;8.40;;
21101;SDS011;10709;49.006;12.100;2023-11-18T11:14:33;12.73;;;8.47;;
21101;SDS011;10709;49.006;12.100;2023-11-18T11:17:08;10.00;;;7.57;;
21101;SDS011;10709;49.006;12.100;2023-11-18T11:26:07;11.67;;;8.17;;
21101;SDS011;10709;49.006;12.100;2023-11-18T11:34:55;12.27;;;8.13;;
21101;SDS011;10709;49.006;12.100;2023-11-18T11:37:28;10.83;;;7.90;;
21101;SDS011;10709;49.006;12.100;2023-11-18T11:39:56;9.60;;;7.57;;
21101;SDS011;10709;49.006;12.100;2023-11-18T11:42:24;10.13;;;7.40;;
21101;SDS011;10709;49.006;12.100;2023-11-18T11:44:53;9.40;;;7.77;;
21101;SDS011;10709;49.006;12.100;2023-11-18T11:47:22;10.17;;;7.50;;
21101;SDS011;10709;49.006;12.100;2023-11-18T11:50:13;11.20;;;7.83;;
21101;SDS011;10709;49.006;12.100;2023-11-18T11:53:06;8.87;;;7.30;;
21101;SDS011;10709;49.006;12.100;2023-11-18T11:55:47;9.93;;;7.60;;
21101;SDS011;10709;49.006;12.100;2023-11-18T11:58:30;9.53;;;7.40;;
21101;SDS011;10709;49.006;12.100;2023-11-18T12:01:15;12.57;;;8.63;;
21101;SDS011;10709;49.006;12.100;2023-11-18T12:03:50;10.67;;;8.33;;
21101;SDS011;10709;49.006;12.100;2023-11-18T12:06:24;9.37;;;7.30;;
21101;SDS011;10709;49.006;12.100;2023-11-18T12:08:53;10.20;;;8.03;;
21101;SDS011;10709;49.006;12.100;2023-11-18T12:11:21;10.37;;;8.30;;
21101;SDS011;10709;49.006;12.100;2023-11-18T12:14:03;9.83;;;7.40;;
21101;SDS011;10709;49.006;12.100;2023-11-18T12:16:59;9.63;;;7.00;;
21101;SDS011;10709;49.006;12.100;2023-11-18T12:19:31;10.10;;;7.80;;
21101;SDS011;10709;49.006;12.100;2023-11-18T12:22:03;9.53;;;7.27;;
21101;SDS011;10709;49.006;12.100;2023-11-18T12:24:39;10.23;;;7.90;;
21101;SDS011;10709;49.006;12.100;2023-11-18T12:27:09;9.63;;;7.63;;
21101;SDS011;10709;49.006;12.100;2023-11-18T12:29:42;9.73;;;7.30;;
21101;SDS011;10709;49.006;12.100;2023-11-18T12:32:12;8.87;;;7.20;;
21101;SDS011;10709;49.006;12.100;2023-11-18T12:46:51;9.70;;;7.60;;
21101;SDS011;10709;49.006;12.100;2023-11-18T12:49:20;9.33;;;7.03;;
21101;SDS011;10709;49.006;12.100;2023-11-18T12:51:53;7.93;;;6.60;;
21101;SDS011;10709;49.006;12.100;2023-11-18T12:54:26;8.47;;;6.30;;
21101;SDS011;10709;49.006;12.100;2023-11-18T12:56:56;7.77;;;6.67;;
21101;SDS011;10709;49.006;12.100;2023-11-18T12:59:23;10.03;;;7.63;;
21101;SDS011;10709;49.006;12.100;2023-11-18T13:01:51;8.07;;;6.97;;
21101;SDS011;10709;49.006;12.100;2023-11-18T13:04:23;10.13;;;7.57;;
21101;SDS011;10709;49.006;12.100;2023-11-18T13:06:52;10.83;;;7.23;;
21101;SDS011;10709;49.006;12.100;2023-11-18T13:09:19;9.83;;;7.43;;
21101;SDS011;10709;49.006;12.100;2023-11-18T13:11:55;10.67;;;7.93;;
21101;SDS011;10709;49.006;12.100;2023-11-18T13:14:25;9.17;;;7.40;;
21101;SDS011;10709;49.006;12.100;2023-11-18T13:16:53;10.00;;;7.57;;
21101;SDS011;10709;49.006;12.100;2023-11-18T13:19:27;8.67;;;7.27;;
21101;SDS011;10709;49.006;12.100;2023-11-18T13:21:59;9.00;;;6.70;;
21101;SDS011;10709;49.006;12.100;2023-11-18T13:24:30;9.77;;;7.50;;
21101;SDS011;10709;49.006;12.100;2023-11-18T13:26:58;10.77;;;7.87;;
21101;SDS011;10709;49.006;12.100;2023-11-18T13:29:37;11.20;;;8.27;;
21101;SDS011;10709;49.006;12.100;2023-11-18T13:32:06;11.30;;;8.43;;
21101;SDS011;10709;49.006;12.100;2023-11-18T13:34:33;9.97;;;8.10;;
21101;SDS011;10709;49.006;12.100;2023-11-18T13:37:07;10.50;;;8.03;;
21101;SDS011;10709;49.006;12.100;2023-11-18T13:39:34;10.43;;;8.10;;
21101;SDS011;10709;49.006;12.100;2023-11-18T13:42:19;11.53;;;8.90;;
21101;SDS011;10709;49.006;12.100;2023-11-18T13:44:47;12.43;;;8.87;;
21101;SDS011;10709;49.006;12.100;2023-11-18T13:47:18;11.63;;;9.37;;
21101;SDS011;10709;49.006;12.100;2023-11-18T13:49:49;11.53;;;9.13;;
21101;SDS011;10709;49.006;12.100;2023-11-18T13:52:18;11.97;;;9.37;;
21101;SDS011;10709;49.006;12.100;2023-11-18T13:54:59;10.20;;;8.50;;
21101;SDS011;10709;49.006;12.100;2023-11-18T13:57:33;11.23;;;9.13;;
21101;SDS011;10709;49.006;12.100;2023-11-18T14:00:51;12.73;;;9.20;;
21101;SDS011;10709;49.006;12.100;2023-11-18T14:03:22;14.07;;;9.93;;
21101;SDS011;10709;49.006;12.100;2023-11-18T14:06:10;11.47;;;9.07;;
21101;SDS011;10709;49.006;12.100;2023-11-18T14:08:39;10.97;;;8.70;;
21101;SDS011;10709;49.006;12.100;2023-11-18T14:11:06;12.63;;;10.10;;
21101;SDS011;10709;49.006;12.100;2023-11-18T14:13:45;13.03;;;10.23;;
21101;SDS011;10709;49.006;12.100;2023-11-18T14:16:12;13.23;;;10.33;;
21101;SDS011;10709;49.006;12.100;2023-11-18T14:18:39;14.13;;;9.83;;
21101;SDS011;10709;49.006;12.100;2023-11-18T14:21:08;12.07;;;8.67;;
21101;SDS011;10709;49.006;12.100;2023-11-18T14:23:41;12.00;;;9.80;;
21101;SDS011;10709;49.006;12.100;2023-11-18T14:26:26;13.07;;;9.80;;
21101;SDS011;10709;49.006;12.100;2023-11-18T14:30:32;11.27;;;8.90;;
21101;SDS011;10709;49.006;12.100;2023-11-18T14:33:38;11.97;;;9.50;;
21101;SDS011;10709;49.006;12.100;2023-11-18T14:40:52;14.07;;;9.87;;
21101;SDS011;10709;49.006;12.100;2023-11-18T14:51:18;12.17;;;9.33;;
21101;SDS011;10709;49.006;12.100;2023-11-18T14:54:58;12.07;;;9.30;;
21101;SDS011;10709;49.006;12.100;2023-11-18T15:03:20;15.40;;;10.60;;
21101;SDS011;10709;49.006;12.100;2023-11-18T15:06:02;15.43;;;10.23;;
21101;SDS011;10709;49.006;12.100;2023-11-18T15:08:43;15.13;;;10.57;;
21101;SDS011;10709;49.006;12.100;2023-11-18T15:11:22;12.60;;;10.07;;
21101;SDS011;10709;49.006;12.100;2023-11-18T15:13:52;13.73;;;10.83;;
21101;SDS011;10709;49.006;12.100;2023-11-18T15:16:20;14.73;;;11.30;;
21101;SDS011;10709;49.006;12.100;2023-11-18T15:18:46;17.17;;;11.97;;
21101;SDS011;10709;49.006;12.100;2023-11-18T15:21:14;16.03;;;11.57;;
21101;SDS011;10709;49.006;12.100;2023-11-18T15:23:41;16.40;;;11.70;;
21101;SDS011;10709;49.006;12.100;2023-11-18T15:26:08;16.17;;;11.97;;
21101;SDS011;10709;49.006;12.100;2023-11-18T15:28:36;12.83;;;10.60;;
21101;SDS011;10709;49.006;12.100;2023-11-18T15:31:02;14.87;;;11.33;;